Meath Environmental Platform

Observations for Trim Patrick St

Time AQI Temp °C Hum % Pres Pa CO μg/m³ H₂S μg/m³ NO μg/m³ NO₂ μg/m³ O₃ μg/m³ SO₂ μg/m³ PM1 μg/m³ PM2.5 μg/m³ PM10 μg/m³
Friday 7 August 2026
05:03 2 13.2 79 38,460 0.35 0.64 3.22 15.37 16.42 0 2 4.57 5.03
05:02 2 13.2 79 38,460 0.35 0.46 3.18 25.56 22.15 0 2 5.27 5.8
05:01 2 13.2 80 38,460 0.34 1 3.14 14.7 23.76 0 2 4.54 4.99
05:00 2 13.2 80 38,460 0.34 1.13 3.15 26.07 12.3 0 2 4.54 4.99
04:59 2 13.2 80 38,460 0.36 0.54 3.12 23.87 8.49 0 2 4.54 4.99
04:57 2 13.1 80 38,460 0.35 0.98 3.33 20.93 13.84 0 2 5.24 5.76
04:56 2 13.1 80 38,460 0.35 1.11 3.39 17.97 21.01 0 2 4.54 4.99
04:55 2 13.1 80 38,460 0.34 0.82 3.36 18.59 17.01 0 2 5.24 5.76
04:54 2 13.1 80 38,460 0.35 1.96 3.26 19.9 23.5 0 2 5.23 5.75
04:53 2 13.1 79 38,460 0.35 0.9 3.24 15.76 17.06 0 2 5.26 5.79
04:52 2 13.1 80 38,460 0.35 1.99 3.23 31.37 21.6 0 2.86 5.95 6.55
04:51 2 13 80 38,460 0.35 0.2 3.27 13.38 22.3 0 2 4.54 4.99
04:50 2 13 80 38,460 0.36 1.52 3.38 19.3 22.68 0 2 5.23 5.76
04:49 2 13 80 38,460 0.36 0 3.39 17.81 16.17 0 2 5.23 5.75
04:48 2 13 80 38,460 0.36 0 3.51 12.66 21.29 0 2 5.94 6.54
04:47 2 13 80 38,460 0.36 1.6 3.49 18.62 24.42 0 2 4.55 5.01
04:46 2 13 79 38,460 0.35 1.96 3.46 18.85 22.29 0 2 5.28 5.81
04:45 2 12.9 80 38,460 0.37 1.65 3.4 23.31 19.89 0 2 4.53 4.98
04:44 2 12.9 79 38,460 0.37 0.79 3.55 19.22 18.6 0 2 4.59 5.05
04:43 2 12.9 80 38,460 0.37 2.3 3.36 22.18 20.1 0 2 5.22 5.74